Time;durP1;ratioP1;P1;durP2;ratioP2;P2;SDS_P1;SDS_P2;PMS_P1;PMS_P2;Temp;Humidity;BMP_temperature;BMP_pressure;BME280_temperature;BME280_humidity;BME280_pressure;Samples;Min_cycle;Max_cycle;Signal;HPM_P1;HPM_P2
2023/01/21 00:02:12;;;;;;;;;;;21.90;65.20;;;;;;6305089;22;19965;-72
2023/01/21 00:04:38;;;;;;;;;;;22.00;66.60;;;;;;6305586;22;19921;-72
2023/01/21 00:07:05;;;;;;;;;;;22.00;66.70;;;;;;6305080;22;19907;-72
2023/01/21 00:09:32;;;;;;;;;;;22.00;65.00;;;;;;6301988;22;19903;-72
2023/01/21 00:12:01;;;;;;;;;;;22.10;66.40;;;;;;6304290;22;19907;-72
2023/01/21 00:14:28;;;;;;;;;;;22.20;67.70;;;;;;6304333;22;19914;-72
2023/01/21 00:16:57;;;;;;;;;;;22.20;66.70;;;;;;6305190;22;20348;-72
2023/01/21 00:19:24;;;;;;;;;;;22.20;65.00;;;;;;6305103;22;19939;-72
2023/01/21 00:21:50;;;;;;;;;;;22.50;67.50;;;;;;6305143;22;20032;-72
2023/01/21 00:24:17;;;;;;;;;;;22.70;64.60;;;;;;6304483;22;19941;-72
2023/01/21 00:26:44;;;;;;;;;;;22.80;65.10;;;;;;6304564;22;19993;-72
2023/01/21 00:29:10;;;;;;;;;;;22.90;63.10;;;;;;6304877;22;19918;-72
2023/01/21 00:31:37;;;;;;;;;;;22.80;61.40;;;;;;6303526;22;19910;-72
2023/01/21 00:34:04;;;;;;;;;;;22.70;62.50;;;;;;6304503;22;19988;-72
2023/01/21 00:36:31;;;;;;;;;;;22.50;65.70;;;;;;6304585;22;19913;-72
2023/01/21 00:38:58;;;;;;;;;;;22.40;66.10;;;;;;6304245;22;19903;-72
2023/01/21 00:41:25;;;;;;;;;;;22.30;67.90;;;;;;6303767;22;20241;-72
2023/01/21 00:43:51;;;;;;;;;;;22.30;69.00;;;;;;6304042;22;20373;-72
2023/01/21 00:46:18;;;;;;;;;;;22.30;69.80;;;;;;6304096;22;19913;-73
2023/01/21 00:48:45;;;;;;;;;;;22.40;68.90;;;;;;6304121;22;19918;-73
2023/01/21 00:51:12;;;;;;;;;;;22.40;70.20;;;;;;6303816;22;20233;-73
2023/01/21 00:53:40;;;;;;;;;;;22.40;67.90;;;;;;6303301;22;19910;-73
2023/01/21 00:56:08;;;;;;;;;;;22.50;68.50;;;;;;6303582;22;20187;-73
2023/01/21 00:58:35;;;;;;;;;;;22.40;69.20;;;;;;6303805;22;19918;-73
2023/01/21 01:01:08;;;;;;;;;;;22.40;67.60;;;;;;6304422;22;19914;-73
2023/01/21 01:03:35;;;;;;;;;;;22.40;68.10;;;;;;6303825;22;19914;-74
2023/01/21 01:06:06;;;;;;;;;;;22.40;67.50;;;;;;6303820;22;19931;-73
2023/01/21 01:08:33;;;;;;;;;;;22.40;66.50;;;;;;6303911;22;20242;-73
2023/01/21 01:11:00;;;;;;;;;;;22.40;66.00;;;;;;6301378;22;19968;-75
2023/01/21 01:13:27;;;;;;;;;;;22.40;67.40;;;;;;6304771;22;19985;-73
2023/01/21 01:15:56;;;;;;;;;;;22.40;65.90;;;;;;6302538;22;19907;-74
2023/01/21 01:18:23;;;;;;;;;;;22.50;67.70;;;;;;6303787;22;19907;-73
2023/01/21 01:20:49;;;;;;;;;;;22.40;67.80;;;;;;6303351;22;20364;-73
2023/01/21 01:23:16;;;;;;;;;;;22.50;69.30;;;;;;6303893;22;19977;-73
2023/01/21 01:25:43;;;;;;;;;;;22.40;68.20;;;;;;6303801;22;20307;-73
2023/01/21 01:28:09;;;;;;;;;;;22.40;67.70;;;;;;6304090;22;19923;-73
2023/01/21 01:30:36;;;;;;;;;;;22.30;68.00;;;;;;6303367;22;19918;-73
2023/01/21 01:33:03;;;;;;;;;;;22.30;70.10;;;;;;6303220;22;19933;-73
2023/01/21 01:35:29;;;;;;;;;;;22.20;70.10;;;;;;6303477;22;20296;-73
2023/01/21 01:37:56;;;;;;;;;;;22.20;70.50;;;;;;6302332;22;19986;-73
2023/01/21 01:40:23;;;;;;;;;;;22.20;71.50;;;;;;6304722;22;19929;-73
2023/01/21 01:42:49;;;;;;;;;;;22.10;70.50;;;;;;6303470;22;19911;-73
2023/01/21 01:45:19;;;;;;;;;;;22.10;71.40;;;;;;6303778;22;19930;-73
2023/01/21 01:47:48;;;;;;;;;;;22.00;73.20;;;;;;6303849;22;20272;-73
2023/01/21 01:50:15;;;;;;;;;;;22.00;72.90;;;;;;6303526;22;19907;-73
2023/01/21 01:52:42;;;;;;;;;;;22.00;73.30;;;;;;6303562;22;19907;-73
2023/01/21 01:55:09;;;;;;;;;;;22.10;73.40;;;;;;6303293;22;19915;-73
2023/01/21 01:57:37;;;;;;;;;;;22.10;72.40;;;;;;6303977;22;19903;-73
2023/01/21 02:00:05;;;;;;;;;;;22.20;73.30;;;;;;6275097;22;19994;-71
2023/01/21 02:02:31;;;;;;;;;;;22.20;71.90;;;;;;6249787;22;19957;-71
2023/01/21 02:04:59;;;;;;;;;;;22.30;72.90;;;;;;6274510;22;19931;-71
2023/01/21 02:07:26;;;;;;;;;;;22.30;72.20;;;;;;6276003;22;20329;-72
2023/01/21 02:09:53;;;;;;;;;;;22.30;72.10;;;;;;6274036;22;19931;-71
2023/01/21 02:12:19;;;;;;;;;;;22.30;72.00;;;;;;6276239;22;19907;-71
2023/01/21 02:14:46;;;;;;;;;;;22.50;71.50;;;;;;6303319;22;19907;-71
2023/01/21 02:17:26;;;;;;;;;;;22.50;71.10;;;;;;6303232;22;19930;-72
2023/01/21 02:19:56;;;;;;;;;;;22.60;71.60;;;;;;6275826;22;19910;-72
2023/01/21 02:22:26;;;;;;;;;;;22.50;71.20;;;;;;6302699;22;19911;-73
2023/01/21 02:24:52;;;;;;;;;;;22.50;68.40;;;;;;6302330;22;19907;-73
2023/01/21 02:27:19;;;;;;;;;;;22.70;70.60;;;;;;6303326;22;19923;-72
2023/01/21 02:30:04;;;;;;;;;;;22.80;69.30;;;;;;6303377;22;19926;-72
2023/01/21 02:32:49;;;;;;;;;;;22.80;70.10;;;;;;6303092;22;19957;-72
2023/01/21 02:35:22;;;;;;;;;;;22.70;68.80;;;;;;6303445;22;19903;-72
2023/01/21 02:37:54;;;;;;;;;;;22.70;68.50;;;;;;6276158;22;19976;-72
2023/01/21 02:40:25;;;;;;;;;;;22.80;68.50;;;;;;6303329;22;20276;-73
2023/01/21 02:42:56;;;;;;;;;;;22.90;69.20;;;;;;6275934;22;19957;-73
2023/01/21 02:45:23;;;;;;;;;;;23.00;69.40;;;;;;6276576;22;19940;-73
2023/01/21 02:47:50;;;;;;;;;;;23.20;68.50;;;;;;6276336;22;19929;-73
2023/01/21 02:50:26;;;;;;;;;;;23.20;66.80;;;;;;6304121;22;19922;-73
2023/01/21 02:53:00;;;;;;;;;;;23.20;66.40;;;;;;6276433;22;19918;-73
2023/01/21 02:55:28;;;;;;;;;;;23.30;66.10;;;;;;6303540;22;20341;-72
2023/01/21 02:57:56;;;;;;;;;;;23.10;66.80;;;;;;6303404;22;19910;-72
2023/01/21 03:00:25;;;;;;;;;;;23.10;67.50;;;;;;6276416;22;19906;-72
2023/01/21 03:03:09;;;;;;;;;;;23.20;67.00;;;;;;6303549;22;20352;-73
2023/01/21 03:05:54;;;;;;;;;;;23.20;66.30;;;;;;6303198;22;19907;-72
2023/01/21 03:08:21;;;;;;;;;;;23.10;66.90;;;;;;6303420;22;19955;-73
2023/01/21 03:10:50;;;;;;;;;;;23.10;68.10;;;;;;6301244;22;19914;-73
2023/01/21 03:19:03;;;;;;;;;;;22.90;67.60;;;;;;6283520;22;19914;-72
2023/01/21 03:21:30;;;;;;;;;;;23.00;67.50;;;;;;6306943;22;19902;-73
2023/01/21 03:23:57;;;;;;;;;;;23.00;66.30;;;;;;6280054;22;19907;-77
2023/01/21 03:26:31;;;;;;;;;;;23.10;69.50;;;;;;6306880;22;20317;-80
2023/01/21 03:28:57;;;;;;;;;;;23.20;68.90;;;;;;6306858;22;19914;-71
2023/01/21 03:31:26;;;;;;;;;;;23.20;70.40;;;;;;6306693;22;19931;-74
2023/01/21 03:33:54;;;;;;;;;;;23.10;69.20;;;;;;6279126;22;19929;-70
2023/01/21 03:36:47;;;;;;;;;;;23.00;70.90;;;;;;6279194;22;19937;-71
2023/01/21 03:39:15;;;;;;;;;;;22.90;69.50;;;;;;6248452;22;19907;-71
2023/01/21 03:41:42;;;;;;;;;;;22.90;70.50;;;;;;6279288;22;19929;-72
2023/01/21 03:44:09;;;;;;;;;;;22.90;70.60;;;;;;6306961;22;19914;-70
2023/01/21 03:47:01;;;;;;;;;;;23.10;71.70;;;;;;6306779;22;19911;-72
2023/01/21 03:49:35;;;;;;;;;;;23.00;68.90;;;;;;6299775;22;19907;-72
2023/01/21 03:52:02;;;;;;;;;;;22.90;67.90;;;;;;6279452;22;19995;-72
2023/01/21 03:54:29;;;;;;;;;;;22.80;68.00;;;;;;6306634;22;19907;-72
2023/01/21 03:56:55;;;;;;;;;;;22.90;68.70;;;;;;6279795;22;19986;-72
2023/01/21 03:59:22;;;;;;;;;;;23.00;68.80;;;;;;6279427;22;20210;-71
2023/01/21 04:01:49;;;;;;;;;;;23.00;67.00;;;;;;6306053;22;19981;-71
2023/01/21 04:04:15;;;;;;;;;;;22.90;66.30;;;;;;6306120;22;20333;-72
2023/01/21 04:06:42;;;;;;;;;;;23.00;68.60;;;;;;6306109;22;19914;-71
2023/01/21 04:09:09;;;;;;;;;;;23.00;68.10;;;;;;6304046;22;19986;-70
2023/01/21 04:11:35;;;;;;;;;;;23.00;69.40;;;;;;6279374;22;19915;-70
2023/01/21 04:14:02;;;;;;;;;;;22.90;68.10;;;;;;6306072;22;19959;-70
2023/01/21 04:16:29;;;;;;;;;;;22.90;68.60;;;;;;6306687;22;19903;-70
2023/01/21 04:18:55;;;;;;;;;;;23.00;69.00;;;;;;6306610;22;19909;-69
2023/01/21 04:21:22;;;;;;;;;;;23.00;68.10;;;;;;6307268;22;19914;-69
2023/01/21 04:23:49;;;;;;;;;;;22.80;68.20;;;;;;6306246;22;19942;-69
2023/01/21 04:26:15;;;;;;;;;;;22.80;69.00;;;;;;6305690;22;19921;-69
2023/01/21 04:28:42;;;;;;;;;;;22.80;68.90;;;;;;6277806;22;20320;-69
2023/01/21 04:31:09;;;;;;;;;;;22.80;69.10;;;;;;6304651;22;20059;-69
2023/01/21 04:33:35;;;;;;;;;;;22.80;68.90;;;;;;6304528;22;19914;-69
2023/01/21 04:36:02;;;;;;;;;;;22.90;70.30;;;;;;6304299;22;20277;-69
2023/01/21 04:38:29;;;;;;;;;;;22.90;67.50;;;;;;6304819;22;20353;-69
2023/01/21 04:40:55;;;;;;;;;;;22.80;67.20;;;;;;6305039;22;20227;-69
2023/01/21 04:43:22;;;;;;;;;;;22.70;66.70;;;;;;6304911;22;19929;-69
2023/01/21 04:45:51;;;;;;;;;;;22.70;67.00;;;;;;6304503;22;19945;-69
2023/01/21 04:48:18;;;;;;;;;;;22.70;66.80;;;;;;6304392;22;19911;-69
2023/01/21 04:50:48;;;;;;;;;;;22.70;66.50;;;;;;6303790;22;20971;-69
2023/01/21 04:53:15;;;;;;;;;;;22.70;66.50;;;;;;6304542;22;19909;-69
2023/01/21 04:55:41;;;;;;;;;;;22.80;66.90;;;;;;6304622;22;20387;-69
2023/01/21 04:58:08;;;;;;;;;;;22.80;68.10;;;;;;6304948;22;19906;-70
2023/01/21 05:00:35;;;;;;;;;;;22.80;68.30;;;;;;6304902;22;19980;-69
2023/01/21 05:03:01;;;;;;;;;;;22.80;68.40;;;;;;6304522;22;19926;-70
2023/01/21 05:05:28;;;;;;;;;;;22.90;68.50;;;;;;6304828;22;19942;-70
2023/01/21 05:07:55;;;;;;;;;;;22.90;68.40;;;;;;6304117;22;19914;-69
2023/01/21 05:10:21;;;;;;;;;;;22.90;67.30;;;;;;6301995;22;20334;-69
2023/01/21 05:12:48;;;;;;;;;;;23.00;69.80;;;;;;6303907;22;19986;-70
2023/01/21 05:15:15;;;;;;;;;;;23.00;70.50;;;;;;6304205;22;19918;-69
2023/01/21 05:17:41;;;;;;;;;;;23.00;71.00;;;;;;6304525;22;20282;-70
2023/01/21 05:20:08;;;;;;;;;;;23.00;70.90;;;;;;6304160;22;19956;-70
2023/01/21 05:22:35;;;;;;;;;;;23.00;71.10;;;;;;6304276;22;19996;-70
2023/01/21 05:25:02;;;;;;;;;;;23.00;72.30;;;;;;6304373;22;19906;-70
2023/01/21 05:27:28;;;;;;;;;;;23.00;72.70;;;;;;6304033;22;19941;-68
2023/01/21 05:29:56;;;;;;;;;;;23.00;71.90;;;;;;6303924;22;19907;-68
2023/01/21 05:32:22;;;;;;;;;;;22.90;72.60;;;;;;6276944;22;20246;-71
2023/01/21 05:34:49;;;;;;;;;;;23.00;72.40;;;;;;6303790;22;19914;-71
2023/01/21 05:37:15;;;;;;;;;;;23.00;73.00;;;;;;6303583;22;19903;-72
2023/01/21 05:39:43;;;;;;;;;;;23.00;73.10;;;;;;6303529;22;20385;-69
2023/01/21 05:42:10;;;;;;;;;;;22.90;72.40;;;;;;6303978;22;19957;-68
2023/01/21 05:44:36;;;;;;;;;;;22.90;73.20;;;;;;6304337;22;19926;-69
2023/01/21 05:47:03;;;;;;;;;;;22.90;73.40;;;;;;6304642;22;19911;-69
2023/01/21 05:49:30;;;;;;;;;;;22.80;71.80;;;;;;6303382;22;19952;-68
2023/01/21 05:51:56;;;;;;;;;;;22.80;73.80;;;;;;6303821;22;19922;-68
2023/01/21 05:54:23;;;;;;;;;;;22.80;72.00;;;;;;6304352;22;19907;-71
2023/01/21 05:56:50;;;;;;;;;;;22.80;72.90;;;;;;6304061;22;20435;-69
2023/01/21 05:59:16;;;;;;;;;;;22.80;72.60;;;;;;6303979;22;19990;-69
2023/01/21 06:01:43;;;;;;;;;;;22.80;73.30;;;;;;6304327;22;19907;-69
2023/01/21 06:04:10;;;;;;;;;;;22.80;72.20;;;;;;6304268;22;20411;-69
2023/01/21 06:06:36;;;;;;;;;;;22.80;72.80;;;;;;6304132;22;19964;-69
2023/01/21 06:09:03;;;;;;;;;;;22.80;72.40;;;;;;6300535;22;19910;-70
2023/01/21 06:11:30;;;;;;;;;;;22.80;73.30;;;;;;6303161;22;19975;-69
2023/01/21 06:13:56;;;;;;;;;;;22.80;72.00;;;;;;6302600;22;20287;-70
2023/01/21 06:16:23;;;;;;;;;;;22.80;72.40;;;;;;6303803;22;20249;-70
2023/01/21 06:18:50;;;;;;;;;;;22.80;72.60;;;;;;6276545;22;19915;-69
2023/01/21 06:21:17;;;;;;;;;;;22.80;72.30;;;;;;6303505;22;20349;-71
2023/01/21 06:23:43;;;;;;;;;;;22.70;72.00;;;;;;6302242;22;19952;-72
2023/01/21 06:26:10;;;;;;;;;;;22.70;72.10;;;;;;6302955;22;19918;-71
2023/01/21 06:28:37;;;;;;;;;;;22.60;71.90;;;;;;6303639;22;19965;-72
2023/01/21 06:31:03;;;;;;;;;;;22.70;72.90;;;;;;6303109;22;19911;-72
2023/01/21 06:33:30;;;;;;;;;;;22.60;72.60;;;;;;6303153;22;19911;-72
2023/01/21 06:35:56;;;;;;;;;;;22.50;72.30;;;;;;6302975;22;19941;-71
2023/01/21 06:38:23;;;;;;;;;;;22.50;72.80;;;;;;6303490;22;19907;-72
2023/01/21 06:40:50;;;;;;;;;;;22.50;72.80;;;;;;6303573;22;20353;-72
2023/01/21 06:43:16;;;;;;;;;;;22.50;73.40;;;;;;6303105;22;20280;-72
2023/01/21 06:45:43;;;;;;;;;;;22.50;73.00;;;;;;6302660;22;20333;-72
2023/01/21 06:48:10;;;;;;;;;;;22.40;73.40;;;;;;6303011;22;19915;-72
2023/01/21 06:50:36;;;;;;;;;;;22.40;73.30;;;;;;6303309;22;19991;-71
2023/01/21 06:53:03;;;;;;;;;;;22.30;74.10;;;;;;6303211;22;19987;-72
2023/01/21 06:55:30;;;;;;;;;;;22.10;73.50;;;;;;6303226;22;19939;-71
2023/01/21 06:57:56;;;;;;;;;;;21.90;74.60;;;;;;6301175;22;20267;-72
2023/01/21 07:00:23;;;;;;;;;;;21.80;76.00;;;;;;6303154;22;19907;-71
2023/01/21 07:02:50;;;;;;;;;;;21.70;76.20;;;;;;6303184;22;19906;-71
2023/01/21 07:05:18;;;;;;;;;;;21.60;76.50;;;;;;6303589;22;20224;-76
2023/01/21 07:07:45;;;;;;;;;;;21.60;77.00;;;;;;6301248;22;19933;-71
2023/01/21 07:10:11;;;;;;;;;;;21.50;76.80;;;;;;6300964;22;19981;-70
2023/01/21 07:12:38;;;;;;;;;;;21.50;77.00;;;;;;6303094;22;20227;-71
2023/01/21 07:15:05;;;;;;;;;;;21.40;77.30;;;;;;6303187;22;20280;-71
2023/01/21 07:17:32;;;;;;;;;;;21.40;76.80;;;;;;6302952;22;19914;-72
2023/01/21 07:19:59;;;;;;;;;;;21.40;76.70;;;;;;6275318;22;19935;-71
2023/01/21 07:22:25;;;;;;;;;;;21.50;75.00;;;;;;6303730;22;19941;-72
2023/01/21 07:24:52;;;;;;;;;;;21.50;74.80;;;;;;6303191;22;19951;-72
2023/01/21 07:27:19;;;;;;;;;;;21.40;73.60;;;;;;6301657;22;19919;-70
2023/01/21 07:29:45;;;;;;;;;;;21.40;74.50;;;;;;6302516;22;19934;-71
2023/01/21 07:32:12;;;;;;;;;;;21.40;73.90;;;;;;6303048;22;20381;-71
2023/01/21 07:34:38;;;;;;;;;;;21.40;74.20;;;;;;6301794;22;19961;-70
2023/01/21 07:37:05;;;;;;;;;;;21.40;73.30;;;;;;6303354;22;19907;-71
2023/01/21 07:39:32;;;;;;;;;;;21.40;73.60;;;;;;6302533;22;20115;-70
2023/01/21 07:41:58;;;;;;;;;;;21.40;73.50;;;;;;6275686;22;20009;-69
2023/01/21 07:44:25;;;;;;;;;;;21.40;72.80;;;;;;6303141;22;19957;-70
2023/01/21 07:46:52;;;;;;;;;;;21.50;73.30;;;;;;6302475;22;19981;-70
2023/01/21 07:49:18;;;;;;;;;;;21.50;74.00;;;;;;6302630;22;19914;-69
2023/01/21 07:51:45;;;;;;;;;;;21.50;73.40;;;;;;6302263;22;19911;-69
2023/01/21 07:54:12;;;;;;;;;;;21.40;73.10;;;;;;6302788;22;19938;-70
2023/01/21 07:56:39;;;;;;;;;;;21.40;73.40;;;;;;6302473;22;19907;-70
2023/01/21 07:59:06;;;;;;;;;;;21.50;74.20;;;;;;6303098;22;19907;-70
2023/01/21 08:01:32;;;;;;;;;;;21.50;74.50;;;;;;6302725;22;20285;-70
2023/01/21 08:03:59;;;;;;;;;;;21.50;74.60;;;;;;6304670;22;19910;-71
2023/01/21 08:06:26;;;;;;;;;;;21.50;74.60;;;;;;6305370;22;20285;-70
2023/01/21 08:08:52;;;;;;;;;;;21.60;74.70;;;;;;6304956;22;19911;-71
2023/01/21 08:11:19;;;;;;;;;;;21.60;75.10;;;;;;6274820;22;20241;-70
2023/01/21 08:13:45;;;;;;;;;;;21.70;75.70;;;;;;6304925;22;20284;-71
2023/01/21 08:16:12;;;;;;;;;;;21.70;76.40;;;;;;6305651;22;19907;-71
2023/01/21 08:18:39;;;;;;;;;;;21.70;76.50;;;;;;6304939;22;19915;-71
2023/01/21 08:21:06;;;;;;;;;;;21.70;76.70;;;;;;6304889;22;20100;-70
2023/01/21 08:23:33;;;;;;;;;;;21.70;76.90;;;;;;6305087;22;20304;-72
2023/01/21 08:26:03;;;;;;;;;;;21.70;76.50;;;;;;6304687;22;19915;-69
2023/01/21 08:28:29;;;;;;;;;;;21.70;76.70;;;;;;6304977;22;20258;-69
2023/01/21 08:31:05;;;;;;;;;;;21.70;76.50;;;;;;6277275;22;19978;-70
2023/01/21 08:33:32;;;;;;;;;;;21.70;77.00;;;;;;6305174;22;20314;-70
2023/01/21 08:36:02;;;;;;;;;;;21.70;76.80;;;;;;6304993;22;20330;-71
2023/01/21 08:38:29;;;;;;;;;;;21.70;77.60;;;;;;6304861;22;20288;-71
2023/01/21 08:40:57;;;;;;;;;;;21.70;76.90;;;;;;6304977;22;20303;-68
2023/01/21 08:43:24;;;;;;;;;;;21.70;77.10;;;;;;6305080;22;19934;-69
2023/01/21 08:45:50;;;;;;;;;;;21.70;77.00;;;;;;6304914;22;19986;-69
2023/01/21 08:48:17;;;;;;;;;;;21.70;76.70;;;;;;6304262;22;20245;-70
2023/01/21 08:50:44;;;;;;;;;;;21.70;76.70;;;;;;6304702;22;19914;-71
2023/01/21 08:53:11;;;;;;;;;;;21.70;76.90;;;;;;6304426;22;19907;-71
2023/01/21 08:55:37;;;;;;;;;;;21.60;76.80;;;;;;6304554;22;20234;-70
2023/01/21 08:58:04;;;;;;;;;;;21.70;76.50;;;;;;6304977;22;19968;-72
2023/01/21 09:00:31;;;;;;;;;;;21.70;76.70;;;;;;6304405;22;19929;-72
2023/01/21 09:02:58;;;;;;;;;;;21.70;76.90;;;;;;6305021;22;19911;-69
2023/01/21 09:05:24;;;;;;;;;;;21.60;77.40;;;;;;6304889;22;19903;-69
2023/01/21 09:07:51;;;;;;;;;;;21.60;77.30;;;;;;6304452;22;19914;-69
2023/01/21 09:13:03;;;;;;;;;;;21.60;76.90;;;;;;6281095;22;20345;-71
2023/01/21 09:15:30;;;;;;;;;;;21.50;75.50;;;;;;6303324;22;19907;-71
2023/01/21 09:17:57;;;;;;;;;;;21.50;75.30;;;;;;6304323;22;20256;-71
2023/01/21 09:20:23;;;;;;;;;;;21.50;76.80;;;;;;6304434;22;19907;-71
2023/01/21 09:22:50;;;;;;;;;;;21.50;77.80;;;;;;6304253;22;19911;-71
2023/01/21 09:25:17;;;;;;;;;;;21.50;78.00;;;;;;6304019;22;19906;-72
2023/01/21 09:27:43;;;;;;;;;;;21.40;78.00;;;;;;6277290;22;19942;-70
2023/01/21 09:30:10;;;;;;;;;;;21.40;77.90;;;;;;6304337;22;19975;-72
2023/01/21 09:32:37;;;;;;;;;;;21.30;78.50;;;;;;6304206;22;19949;-70
2023/01/21 09:35:04;;;;;;;;;;;21.30;77.60;;;;;;6304549;22;19907;-69
2023/01/21 09:37:33;;;;;;;;;;;21.30;76.30;;;;;;6304276;22;20362;-71
2023/01/21 09:40:00;;;;;;;;;;;21.30;76.30;;;;;;6276718;22;20338;-70
2023/01/21 09:42:27;;;;;;;;;;;21.20;76.80;;;;;;6303510;22;19953;-69
2023/01/21 09:44:54;;;;;;;;;;;21.20;76.60;;;;;;6303910;22;20352;-71
2023/01/21 09:47:34;;;;;;;;;;;21.30;76.20;;;;;;6303853;22;19911;-70
2023/01/21 09:50:15;;;;;;;;;;;21.30;75.90;;;;;;6276580;22;20404;-69
2023/01/21 09:52:48;;;;;;;;;;;21.20;76.30;;;;;;6303436;22;19911;-68
2023/01/21 09:55:15;;;;;;;;;;;21.20;76.30;;;;;;6304038;22;19907;-69
2023/01/21 09:57:59;;;;;;;;;;;21.20;75.90;;;;;;6304031;22;19907;-70
2023/01/21 10:00:44;;;;;;;;;;;21.20;75.90;;;;;;6304097;22;19906;-69
2023/01/21 10:03:11;;;;;;;;;;;21.20;75.70;;;;;;6304218;22;19914;-69
2023/01/21 10:05:44;;;;;;;;;;;21.20;75.80;;;;;;6303857;22;20345;-72
2023/01/21 10:08:23;;;;;;;;;;;21.10;75.60;;;;;;6303133;22;20313;-71
2023/01/21 10:10:51;;;;;;;;;;;21.20;75.50;;;;;;6273632;22;19910;-70
2023/01/21 10:13:43;;;;;;;;;;;21.20;75.60;;;;;;6276376;22;19903;-70
2023/01/21 10:16:22;;;;;;;;;;;21.20;75.70;;;;;;6245719;22;19922;-71
2023/01/21 10:18:49;;;;;;;;;;;21.20;76.10;;;;;;6303860;22;19907;-71
2023/01/21 10:21:27;;;;;;;;;;;21.20;75.70;;;;;;6276711;22;19903;-70
2023/01/21 10:23:56;;;;;;;;;;;21.20;75.70;;;;;;6303677;22;19914;-70
2023/01/21 10:26:23;;;;;;;;;;;21.20;75.70;;;;;;6276428;22;19922;-70
2023/01/21 10:28:53;;;;;;;;;;;21.10;75.50;;;;;;6276837;22;20021;-69
2023/01/21 10:31:27;;;;;;;;;;;21.10;75.70;;;;;;6276635;22;19907;-69
2023/01/21 10:33:54;;;;;;;;;;;21.10;76.00;;;;;;6304005;22;19903;-69
2023/01/21 10:36:46;;;;;;;;;;;21.10;76.00;;;;;;6303648;22;19978;-69
2023/01/21 10:39:19;;;;;;;;;;;21.00;75.70;;;;;;6296745;22;20037;-70
2023/01/21 10:42:08;;;;;;;;;;;21.10;75.80;;;;;;6276814;22;19903;-69
2023/01/21 10:44:41;;;;;;;;;;;21.10;76.20;;;;;;6231750;22;20298;-69
2023/01/21 10:47:26;;;;;;;;;;;21.10;76.10;;;;;;6303234;22;20318;-69
2023/01/21 10:49:52;;;;;;;;;;;21.10;75.80;;;;;;6303356;22;19910;-70
2023/01/21 10:52:34;;;;;;;;;;;21.00;76.20;;;;;;6303173;22;19907;-70
2023/01/21 10:55:01;;;;;;;;;;;21.10;76.90;;;;;;6303398;22;19910;-69
2023/01/21 10:57:31;;;;;;;;;;;21.00;76.60;;;;;;6302269;22;20342;-70
2023/01/21 10:59:58;;;;;;;;;;;21.00;76.70;;;;;;6302410;22;19987;-69
2023/01/21 11:02:33;;;;;;;;;;;21.00;76.50;;;;;;6274946;22;20349;-69
2023/01/21 11:05:01;;;;;;;;;;;21.00;76.70;;;;;;6302633;22;19964;-69
2023/01/21 11:07:29;;;;;;;;;;;21.00;76.60;;;;;;6302580;22;20606;-69
2023/01/21 11:09:56;;;;;;;;;;;21.10;76.70;;;;;;6273340;22;19907;-70
2023/01/21 11:12:23;;;;;;;;;;;21.00;76.60;;;;;;6275690;22;19958;-69
2023/01/21 11:14:53;;;;;;;;;;;21.10;76.80;;;;;;6303149;22;20330;-70
2023/01/21 11:17:35;;;;;;;;;;;21.10;76.80;;;;;;6303518;22;19907;-69
2023/01/21 11:20:03;;;;;;;;;;;21.10;76.30;;;;;;6275414;22;19907;-70
2023/01/21 11:22:31;;;;;;;;;;;21.00;76.20;;;;;;6302799;22;19970;-69
2023/01/21 11:24:58;;;;;;;;;;;21.10;76.20;;;;;;6303325;22;19960;-70
2023/01/21 11:27:27;;;;;;;;;;;21.10;76.40;;;;;;6303010;22;19915;-69
2023/01/21 11:29:54;;;;;;;;;;;21.10;76.50;;;;;;6302845;22;19914;-71
2023/01/21 11:32:21;;;;;;;;;;;21.10;76.60;;;;;;6302734;22;20415;-70
2023/01/21 11:34:49;;;;;;;;;;;21.10;76.30;;;;;;6303247;22;19926;-69
2023/01/21 11:37:18;;;;;;;;;;;21.10;76.90;;;;;;6302534;22;20302;-69
2023/01/21 11:39:48;;;;;;;;;;;21.00;77.30;;;;;;6305374;22;19910;-69
2023/01/21 11:42:15;;;;;;;;;;;21.00;77.10;;;;;;6277983;22;19978;-68
2023/01/21 11:45:06;;;;;;;;;;;21.00;77.00;;;;;;6304454;22;19907;-69
2023/01/21 11:47:50;;;;;;;;;;;21.00;77.20;;;;;;6304152;22;19956;-68
2023/01/21 11:50:17;;;;;;;;;;;21.10;76.70;;;;;;6305658;22;19930;-68
2023/01/21 11:52:44;;;;;;;;;;;21.10;77.10;;;;;;6303038;22;19910;-68
2023/01/21 11:55:21;;;;;;;;;;;21.10;76.70;;;;;;6305131;22;19907;-69
2023/01/21 11:57:51;;;;;;;;;;;21.10;76.50;;;;;;6305097;22;20237;-69
2023/01/21 12:00:18;;;;;;;;;;;21.10;76.50;;;;;;6304704;22;19911;-68
2023/01/21 12:02:51;;;;;;;;;;;21.10;76.60;;;;;;6304560;22;20380;-68
2023/01/21 12:05:21;;;;;;;;;;;21.10;76.80;;;;;;6304576;22;19903;-69
2023/01/21 12:07:48;;;;;;;;;;;21.10;76.70;;;;;;6303311;22;19911;-69
2023/01/21 12:10:15;;;;;;;;;;;21.10;76.70;;;;;;6302575;22;19914;-69
2023/01/21 12:13:00;;;;;;;;;;;21.10;76.60;;;;;;6304182;22;20326;-68
2023/01/21 12:15:44;;;;;;;;;;;21.10;76.70;;;;;;6304882;22;19907;-69
2023/01/21 12:18:16;;;;;;;;;;;21.10;76.90;;;;;;6305461;22;19990;-69
2023/01/21 12:20:50;;;;;;;;;;;21.10;77.40;;;;;;6304767;22;19961;-70
2023/01/21 12:23:24;;;;;;;;;;;21.10;77.40;;;;;;6305023;22;19956;-68
2023/01/21 12:26:09;;;;;;;;;;;21.10;77.60;;;;;;6277688;22;19925;-68
2023/01/21 12:28:35;;;;;;;;;;;21.10;77.80;;;;;;6304300;22;19964;-68
2023/01/21 12:31:05;;;;;;;;;;;21.10;77.80;;;;;;6304489;22;19907;-68
2023/01/21 12:33:32;;;;;;;;;;;21.10;77.90;;;;;;6303775;22;19903;-69
2023/01/21 12:36:00;;;;;;;;;;;21.10;78.10;;;;;;6304465;22;20322;-69
2023/01/21 12:38:38;;;;;;;;;;;21.10;78.00;;;;;;6304802;22;20249;-69
2023/01/21 12:41:04;;;;;;;;;;;21.10;78.10;;;;;;6277525;22;19911;-68
2023/01/21 12:43:32;;;;;;;;;;;21.10;78.10;;;;;;6304691;22;19907;-69
2023/01/21 12:46:05;;;;;;;;;;;21.10;78.00;;;;;;6277058;22;20318;-69
2023/01/21 12:48:33;;;;;;;;;;;21.10;78.10;;;;;;6304176;22;19914;-68
2023/01/21 12:51:23;;;;;;;;;;;21.10;78.10;;;;;;6277632;22;19907;-69
2023/01/21 12:53:58;;;;;;;;;;;21.10;78.10;;;;;;6285077;22;19930;-69
2023/01/21 12:56:27;;;;;;;;;;;21.10;78.00;;;;;;6304707;22;19907;-68
2023/01/21 12:58:54;;;;;;;;;;;21.10;78.10;;;;;;6277463;22;19907;-69
2023/01/21 13:01:36;;;;;;;;;;;21.10;78.20;;;;;;6304771;22;19907;-69
2023/01/21 13:04:16;;;;;;;;;;;21.10;78.40;;;;;;6304472;22;19988;-69
2023/01/21 13:06:44;;;;;;;;;;;21.00;78.20;;;;;;6277203;22;19929;-70
2023/01/21 13:09:13;;;;;;;;;;;21.00;78.40;;;;;;6274991;22;19911;-68
2023/01/21 13:11:45;;;;;;;;;;;21.00;78.50;;;;;;6277300;22;20219;-69
2023/01/21 13:14:21;;;;;;;;;;;21.00;78.60;;;;;;6279411;22;19912;-69
2023/01/21 13:16:49;;;;;;;;;;;21.00;78.50;;;;;;6307415;22;19907;-68
2023/01/21 13:19:16;;;;;;;;;;;21.00;78.60;;;;;;6279562;22;19910;-69
2023/01/21 13:21:45;;;;;;;;;;;21.00;79.00;;;;;;6280591;22;19903;-68
2023/01/21 13:24:12;;;;;;;;;;;20.90;78.90;;;;;;6280154;22;19953;-68
2023/01/21 13:26:42;;;;;;;;;;;20.80;78.80;;;;;;6307719;22;19925;-68
2023/01/21 13:29:12;;;;;;;;;;;20.80;79.00;;;;;;6280552;22;20263;-68
2023/01/21 13:31:56;;;;;;;;;;;20.90;79.40;;;;;;6307778;22;19907;-68
2023/01/21 13:34:43;;;;;;;;;;;20.80;79.20;;;;;;6307317;22;19903;-68
2023/01/21 13:37:14;;;;;;;;;;;20.80;78.90;;;;;;6280499;22;19907;-68
2023/01/21 13:39:50;;;;;;;;;;;20.80;79.10;;;;;;6279952;22;19910;-68
2023/01/21 13:42:28;;;;;;;;;;;20.80;78.80;;;;;;6307521;22;19907;-68
2023/01/21 13:44:58;;;;;;;;;;;20.80;79.10;;;;;;6307306;22;19907;-68
2023/01/21 13:47:54;;;;;;;;;;;20.80;78.60;;;;;;6307511;22;19906;-68
2023/01/21 13:50:20;;;;;;;;;;;20.80;78.20;;;;;;6172679;22;20288;-68
2023/01/21 13:53:03;;;;;;;;;;;20.80;78.60;;;;;;6307250;22;19907;-68
2023/01/21 13:55:34;;;;;;;;;;;20.80;78.50;;;;;;6279934;22;19945;-68
2023/01/21 13:58:04;;;;;;;;;;;20.70;78.70;;;;;;6307151;22;20234;-68
2023/01/21 14:00:32;;;;;;;;;;;20.70;78.30;;;;;;6307057;22;19899;-68
2023/01/21 14:03:04;;;;;;;;;;;20.70;78.00;;;;;;6279787;22;19903;-68
2023/01/21 14:05:34;;;;;;;;;;;20.80;77.90;;;;;;6307406;22;20009;-68
2023/01/21 14:08:08;;;;;;;;;;;20.70;77.90;;;;;;6307705;22;19910;-68
2023/01/21 14:10:40;;;;;;;;;;;20.70;77.30;;;;;;6306732;22;19907;-67
2023/01/21 14:13:09;;;;;;;;;;;20.70;77.20;;;;;;6279251;22;19903;-68
2023/01/21 14:15:44;;;;;;;;;;;20.70;77.00;;;;;;6307060;22;19903;-68
2023/01/21 14:18:13;;;;;;;;;;;20.70;76.90;;;;;;6280207;22;19907;-68
2023/01/21 14:20:49;;;;;;;;;;;20.70;76.30;;;;;;6307093;22;19925;-68
2023/01/21 14:23:34;;;;;;;;;;;20.80;77.10;;;;;;6305382;22;19903;-68
2023/01/21 14:26:00;;;;;;;;;;;20.70;76.90;;;;;;6307002;22;19950;-68
2023/01/21 14:28:32;;;;;;;;;;;20.70;76.80;;;;;;6307109;22;19911;-68
2023/01/21 14:31:25;;;;;;;;;;;20.70;77.10;;;;;;6306927;22;19939;-68
2023/01/21 14:34:10;;;;;;;;;;;20.70;76.90;;;;;;6300489;22;20229;-68
2023/01/21 14:36:54;;;;;;;;;;;20.70;77.10;;;;;;6305859;22;19907;-68
2023/01/21 14:39:29;;;;;;;;;;;20.70;77.40;;;;;;6307115;22;19999;-68